Time;durP1;ratioP1;P1;durP2;ratioP2;P2;SDS_P1;SDS_P2;PMS_P1;PMS_P2;Temp;Humidity;BMP_temperature;BMP_pressure;BME280_temperature;BME280_humidity;BME280_pressure;Samples;Min_cycle;Max_cycle;Signal;HPM_P1;HPM_P2
2023/09/01 00:01:03;;;;;;;4.65;3.30;;;15.10;99.90;;;;;;2495354;23;20003;-73
2023/09/01 00:02:03;;;;;;;5.13;3.50;;;15.20;99.90;;;;;;2495351;23;20328;-73
2023/09/01 00:03:04;;;;;;;8.95;4.43;;;15.10;99.90;;;;;;2495092;23;20007;-73
2023/09/01 00:04:04;;;;;;;7.35;5.00;;;15.10;99.90;;;;;;2482801;23;19998;-73
2023/09/01 00:05:06;;;;;;;7.32;3.83;;;15.10;99.90;;;;;;2483343;23;20499;-73
2023/09/01 00:06:15;;;;;;;6.22;3.55;;;15.10;99.90;;;;;;2495244;23;20102;-73
2023/09/01 00:07:16;;;;;;;8.23;4.22;;;15.10;99.90;;;;;;2495778;23;20341;-73
2023/09/01 00:08:16;;;;;;;7.18;4.65;;;15.10;99.90;;;;;;2495672;23;20007;-73
2023/09/01 00:09:17;;;;;;;7.78;4.50;;;15.10;99.90;;;;;;2482417;23;20000;-73
2023/09/01 00:10:17;;;;;;;5.70;4.03;;;15.10;99.90;;;;;;2482413;23;20322;-73
2023/09/01 00:11:19;;;;;;;6.60;3.95;;;15.10;99.90;;;;;;2494924;23;20034;-73
2023/09/01 00:12:20;;;;;;;7.32;4.25;;;15.00;99.90;;;;;;2493771;23;20003;-73
2023/09/01 00:13:20;;;;;;;4.80;3.63;;;15.00;99.90;;;;;;2495755;23;20030;-73
2023/09/01 00:14:21;;;;;;;8.77;4.25;;;15.00;99.90;;;;;;2495020;23;20070;-73
2023/09/01 00:15:21;;;;;;;6.65;4.10;;;15.00;99.90;;;;;;2495522;23;20011;-73
2023/09/01 00:16:22;;;;;;;9.27;5.22;;;15.00;99.90;;;;;;2495210;23;20049;-73
2023/09/01 00:17:22;;;;;;;8.27;3.78;;;15.00;99.90;;;;;;2495548;23;20097;-73
2023/09/01 00:18:23;;;;;;;8.15;4.00;;;15.00;99.90;;;;;;2494576;23;20433;-73
2023/09/01 00:19:23;;;;;;;5.57;3.58;;;15.00;99.90;;;;;;2495695;23;20031;-73
2023/09/01 00:20:24;;;;;;;4.95;3.85;;;15.00;99.90;;;;;;2495690;23;19999;-73
2023/09/01 00:21:24;;;;;;;4.07;3.65;;;15.00;99.90;;;;;;2495353;23;19999;-73
2023/09/01 00:22:25;;;;;;;4.50;3.70;;;15.00;99.90;;;;;;2493940;23;20038;-73
2023/09/01 00:23:26;;;;;;;6.43;3.58;;;15.00;99.90;;;;;;2495303;23;20010;-73
2023/09/01 00:24:27;;;;;;;7.32;4.05;;;15.00;99.90;;;;;;2494760;23;20086;-73
2023/09/01 00:25:27;;;;;;;6.65;4.38;;;15.00;99.90;;;;;;2495685;23;20015;-73
2023/09/01 00:26:28;;;;;;;7.85;4.15;;;15.00;99.90;;;;;;2495591;23;20082;-73
2023/09/01 00:27:28;;;;;;;7.32;4.15;;;15.00;99.90;;;;;;2494594;23;20003;-73
2023/09/01 00:28:29;;;;;;;4.22;3.15;;;14.90;99.90;;;;;;2495570;23;20436;-73
2023/09/01 00:29:33;;;;;;;7.10;3.90;;;14.90;99.90;;;;;;2494649;23;20082;-73
2023/09/01 00:30:59;;;;;;;8.10;4.55;;;14.90;99.90;;;;;;2495042;23;20007;-73
2023/09/01 00:32:00;;;;;;;6.90;3.85;;;14.90;99.90;;;;;;2494838;23;19995;-73
2023/09/01 00:33:01;;;;;;;5.53;3.90;;;14.90;99.90;;;;;;2494429;23;20369;-73
2023/09/01 00:34:02;;;;;;;6.53;3.85;;;14.90;99.90;;;;;;2494275;23;20007;-73
2023/09/01 00:35:05;;;;;;;4.13;3.50;;;14.90;99.90;;;;;;2495767;23;20074;-73
2023/09/01 00:36:06;;;;;;;8.80;3.70;;;14.90;99.90;;;;;;2481818;23;20007;-73
2023/09/01 00:37:06;;;;;;;12.30;4.25;;;14.90;99.90;;;;;;2482663;23;20018;-73
2023/09/01 00:38:07;;;;;;;5.30;3.35;;;14.80;99.90;;;;;;2495707;23;20304;-73
2023/09/01 00:39:08;;;;;;;5.97;3.30;;;14.80;99.90;;;;;;2494264;23;20007;-73
2023/09/01 00:40:09;;;;;;;7.00;4.13;;;14.80;99.90;;;;;;2494911;23;20023;-73
2023/09/01 00:41:09;;;;;;;4.28;3.65;;;14.80;99.90;;;;;;2495244;23;19995;-73
2023/09/01 00:42:10;;;;;;;11.43;4.63;;;14.80;99.90;;;;;;2494486;23;20003;-73
2023/09/01 00:43:10;;;;;;;5.72;3.47;;;14.80;99.90;;;;;;2495811;23;20729;-73
2023/09/01 00:44:13;;;;;;;6.30;3.58;;;14.80;99.90;;;;;;2495647;23;20003;-73
2023/09/01 00:45:14;;;;;;;9.98;3.85;;;14.80;99.90;;;;;;2494487;23;20009;-73
2023/09/01 00:46:15;;;;;;;4.70;3.88;;;14.80;99.90;;;;;;2495559;23;20007;-73
2023/09/01 00:47:16;;;;;;;4.38;3.40;;;14.80;99.90;;;;;;2495108;23;20031;-73
2023/09/01 00:48:18;;;;;;;5.43;3.40;;;14.80;99.90;;;;;;2495592;23;20011;-73
2023/09/01 00:49:19;;;;;;;7.93;3.95;;;14.80;99.90;;;;;;2495517;23;20012;-73
2023/09/01 00:50:19;;;;;;;5.30;3.58;;;14.80;99.90;;;;;;2495598;23;20447;-73
2023/09/01 00:51:20;;;;;;;3.83;3.10;;;14.80;99.90;;;;;;2494272;23;20034;-73
2023/09/01 00:52:21;;;;;;;4.45;3.67;;;14.70;99.90;;;;;;2495132;23;20007;-73
2023/09/01 00:53:21;;;;;;;5.22;3.58;;;14.70;99.90;;;;;;2495127;23;20060;-73
2023/09/01 00:54:23;;;;;;;9.27;3.53;;;14.70;99.90;;;;;;2495389;23;20032;-73
2023/09/01 00:55:23;;;;;;;4.00;3.08;;;14.80;99.90;;;;;;2494647;23;20460;-73
2023/09/01 00:56:24;;;;;;;5.63;3.60;;;14.70;99.90;;;;;;2494370;23;20476;-73
2023/09/01 00:57:24;;;;;;;6.10;4.00;;;14.70;99.90;;;;;;2494889;23;20015;-73
2023/09/01 00:58:26;;;;;;;4.50;3.88;;;14.70;99.90;;;;;;2495366;23;20094;-73
2023/09/01 00:59:27;;;;;;;7.80;4.10;;;14.70;99.90;;;;;;2495373;23;20030;-73
2023/09/01 01:00:31;;;;;;;5.40;3.35;;;14.70;99.90;;;;;;2495535;23;20027;-73
2023/09/01 01:01:33;;;;;;;4.85;3.53;;;14.70;99.90;;;;;;2494592;23;20003;-74
2023/09/01 01:02:33;;;;;;;5.95;4.00;;;14.70;99.90;;;;;;2494390;23;20083;-74
2023/09/01 01:03:34;;;;;;;5.50;3.63;;;14.70;99.90;;;;;;2495433;23;20022;-74
2023/09/01 01:04:35;;;;;;;5.10;3.80;;;14.70;99.90;;;;;;2494911;23;20086;-74
2023/09/01 01:05:57;;;;;;;9.38;3.88;;;14.70;99.90;;;;;;2494491;23;20665;-74
2023/09/01 01:07:14;;;;;;;4.38;3.83;;;14.70;99.90;;;;;;2495819;23;20030;-73
2023/09/01 01:08:38;;;;;;;4.05;3.30;;;14.70;99.90;;;;;;2495419;23;20015;-73
2023/09/01 01:10:08;;;;;;;5.57;3.47;;;14.70;99.90;;;;;;2494762;23;20026;-73
2023/09/01 01:11:17;;;;;;;5.18;2.85;;;14.60;99.90;;;;;;2494898;23;20018;-74
2023/09/01 01:12:36;;;;;;;5.80;3.85;;;14.60;99.90;;;;;;2494152;23;20027;-73
2023/09/01 01:13:44;;;;;;;5.45;3.90;;;14.60;99.90;;;;;;2494933;23;20019;-74
2023/09/01 01:14:55;;;;;;;7.70;4.00;;;14.60;99.90;;;;;;2495881;23;20011;-73
2023/09/01 01:15:56;;;;;;;7.03;3.90;;;14.60;99.90;;;;;;2492198;23;20003;-73
2023/09/01 01:16:57;;;;;;;4.32;3.90;;;14.60;99.90;;;;;;2495273;23;20054;-74
2023/09/01 01:18:00;;;;;;;6.82;4.60;;;14.60;99.90;;;;;;2495486;23;20357;-74
2023/09/01 01:19:09;;;;;;;7.65;4.20;;;14.60;99.90;;;;;;2495489;23;20074;-74
2023/09/01 01:20:15;;;;;;;9.20;3.75;;;14.60;99.90;;;;;;2496239;23;19996;-74
2023/09/01 01:21:26;;;;;;;6.68;3.90;;;14.50;99.90;;;;;;2495894;23;20007;-73
2023/09/01 01:22:42;;;;;;;12.63;5.07;;;14.50;99.90;;;;;;2495520;23;20420;-74
2023/09/01 01:23:44;;;;;;;8.13;4.40;;;14.50;99.90;;;;;;2496370;23;20417;-74
2023/09/01 01:24:44;;;;;;;6.57;4.25;;;14.50;99.90;;;;;;2496509;23;20015;-73
2023/09/01 01:25:52;;;;;;;8.98;4.50;;;14.50;99.90;;;;;;2495510;23;20491;-74
2023/09/01 01:26:53;;;;;;;7.05;3.83;;;14.50;99.90;;;;;;2496073;23;20094;-74
2023/09/01 01:27:57;;;;;;;5.68;4.05;;;14.50;99.90;;;;;;2496091;23;20003;-73
2023/09/01 01:28:58;;;;;;;7.43;4.30;;;14.50;99.90;;;;;;2493648;23;20019;-74
2023/09/01 01:29:58;;;;;;;7.45;3.72;;;14.50;99.90;;;;;;2495652;23;20011;-73
2023/09/01 01:30:59;;;;;;;8.13;3.88;;;14.50;99.90;;;;;;2495289;23;20054;-73
2023/09/01 01:32:00;;;;;;;8.27;3.78;;;14.50;99.90;;;;;;2495978;23;20003;-74
2023/09/01 01:33:00;;;;;;;6.70;3.05;;;14.50;99.90;;;;;;2495329;23;20055;-74
2023/09/01 01:34:12;;;;;;;9.00;4.32;;;14.50;99.90;;;;;;2496320;23;20007;-74
2023/09/01 01:35:45;;;;;;;7.03;4.22;;;14.50;99.90;;;;;;2496114;23;20007;-74
2023/09/01 01:37:00;;;;;;;8.45;4.18;;;14.50;99.90;;;;;;2496102;23;20512;-73
2023/09/01 01:38:12;;;;;;;5.95;3.30;;;14.40;99.90;;;;;;2495907;23;20008;-73
2023/09/01 01:39:20;;;;;;;5.05;4.00;;;14.40;99.90;;;;;;2495869;23;20000;-74
2023/09/01 01:40:24;;;;;;;11.75;4.63;;;14.40;99.90;;;;;;2496270;23;20007;-74
2023/09/01 01:41:32;;;;;;;5.25;3.30;;;14.40;99.90;;;;;;2495111;23;20003;-73
2023/09/01 01:42:36;;;;;;;6.30;3.30;;;14.50;99.90;;;;;;2494903;23;20007;-73
2023/09/01 01:43:39;;;;;;;7.88;3.97;;;14.50;99.90;;;;;;2496390;23;20003;-74
2023/09/01 01:44:45;;;;;;;9.52;4.28;;;14.40;99.90;;;;;;2495897;23;20544;-73
2023/09/01 01:45:46;;;;;;;6.25;4.57;;;14.40;99.90;;;;;;2493937;23;20433;-74
2023/09/01 01:46:47;;;;;;;9.07;4.00;;;14.40;99.90;;;;;;2496090;23;20061;-74
2023/09/01 01:47:49;;;;;;;6.80;3.70;;;14.40;99.90;;;;;;2495658;23;20484;-74
2023/09/01 01:48:49;;;;;;;8.18;3.83;;;14.40;99.90;;;;;;2496122;23;20008;-74
2023/09/01 01:49:50;;;;;;;8.02;3.83;;;14.40;99.90;;;;;;2495952;23;20015;-74
2023/09/01 01:50:54;;;;;;;6.68;3.97;;;14.40;99.90;;;;;;2483469;23;20007;-74
2023/09/01 01:51:55;;;;;;;5.30;3.72;;;14.40;99.90;;;;;;2484021;23;20023;-74
2023/09/01 01:52:56;;;;;;;5.80;3.40;;;14.40;99.90;;;;;;2494999;23;20000;-74
2023/09/01 01:53:56;;;;;;;6.25;3.50;;;14.40;99.90;;;;;;2496165;23;20066;-74
2023/09/01 01:54:57;;;;;;;5.47;3.47;;;14.40;99.90;;;;;;2494612;23;20043;-73
2023/09/01 01:55:57;;;;;;;13.93;4.05;;;14.40;99.90;;;;;;2496069;23;20078;-74
2023/09/01 01:56:58;;;;;;;8.30;4.30;;;14.40;99.90;;;;;;2493675;23;20074;-74
2023/09/01 01:57:59;;;;;;;9.38;4.97;;;14.40;99.90;;;;;;2496066;23;20066;-73
2023/09/01 01:58:59;;;;;;;9.18;4.57;;;14.40;99.90;;;;;;2495427;23;20690;-74
2023/09/01 02:00:00;;;;;;;7.53;4.45;;;14.40;99.90;;;;;;2495930;23;19996;-73
2023/09/01 02:01:06;;;;;;;8.07;4.78;;;14.40;99.90;;;;;;2483299;23;20011;-74
2023/09/01 02:02:06;;;;;;;9.43;4.72;;;14.40;99.90;;;;;;2483153;23;20400;-74
2023/09/01 02:03:07;;;;;;;9.07;4.13;;;14.40;99.90;;;;;;2496020;23;20003;-74
2023/09/01 02:04:07;;;;;;;12.40;4.68;;;14.30;99.90;;;;;;2496542;23;20011;-74
2023/09/01 02:05:09;;;;;;;8.25;5.00;;;14.30;99.90;;;;;;2482960;23;20012;-74
2023/09/01 02:06:10;;;;;;;6.03;3.88;;;14.30;99.90;;;;;;2482128;23;20649;-74
2023/09/01 02:07:10;;;;;;;9.55;4.88;;;14.30;99.90;;;;;;2496188;23;20004;-74
2023/09/01 02:08:11;;;;;;;7.80;4.55;;;14.30;99.90;;;;;;2495823;23;20102;-73
2023/09/01 02:09:14;;;;;;;11.98;4.63;;;14.30;99.90;;;;;;2495566;23;20008;-73
2023/09/01 02:10:14;;;;;;;7.93;4.85;;;14.30;99.90;;;;;;2496506;23;20337;-74
2023/09/01 02:11:15;;;;;;;8.30;4.93;;;14.30;99.90;;;;;;2495356;23;20011;-73
2023/09/01 02:12:16;;;;;;;9.18;4.47;;;14.20;99.90;;;;;;2495489;23;20010;-74
2023/09/01 02:13:16;;;;;;;7.63;4.43;;;14.20;99.90;;;;;;2495891;23;20011;-74
2023/09/01 02:14:17;;;;;;;9.60;4.47;;;14.20;99.90;;;;;;2495927;23;20015;-74
2023/09/01 02:15:18;;;;;;;7.38;4.72;;;14.20;99.90;;;;;;2495342;23;20086;-74
2023/09/01 02:16:18;;;;;;;9.75;3.92;;;14.20;99.90;;;;;;2495389;23;20059;-74
2023/09/01 02:17:19;;;;;;;6.78;4.10;;;14.20;99.90;;;;;;2495454;23;20046;-74
2023/09/01 02:18:20;;;;;;;6.20;4.13;;;14.20;99.90;;;;;;2495919;23;20086;-73
2023/09/01 02:19:21;;;;;;;9.35;4.68;;;14.20;99.90;;;;;;2495329;23;20079;-73
2023/09/01 02:20:22;;;;;;;9.65;4.78;;;14.20;99.90;;;;;;2496124;23;20357;-74
2023/09/01 02:21:22;;;;;;;9.95;5.00;;;14.20;99.90;;;;;;2483105;23;20012;-73
2023/09/01 02:22:23;;;;;;;10.85;5.25;;;14.20;99.90;;;;;;2482575;23;20079;-73
2023/09/01 02:23:24;;;;;;;8.38;4.10;;;14.20;99.90;;;;;;2495449;23;20436;-74
2023/09/01 02:24:24;;;;;;;7.60;4.32;;;14.20;99.90;;;;;;2495290;23;20038;-73
2023/09/01 02:25:25;;;;;;;8.27;4.13;;;14.10;99.90;;;;;;2496049;23;20091;-73
2023/09/01 02:26:25;;;;;;;8.30;4.45;;;14.10;99.90;;;;;;2495545;23;20012;-74
2023/09/01 02:27:26;;;;;;;6.43;4.00;;;14.10;99.90;;;;;;2495920;23;20007;-74
2023/09/01 02:28:26;;;;;;;7.78;4.68;;;14.20;99.90;;;;;;2495860;23;20107;-73
2023/09/01 02:29:27;;;;;;;8.07;4.25;;;14.20;99.90;;;;;;2496132;23;20020;-74
2023/09/01 02:30:29;;;;;;;8.88;4.63;;;14.20;99.90;;;;;;2492735;23;20018;-74
2023/09/01 02:31:29;;;;;;;6.15;4.45;;;14.20;99.90;;;;;;2482736;23;20141;-74
2023/09/01 02:32:30;;;;;;;8.98;4.85;;;14.20;99.90;;;;;;2482979;23;20014;-73
2023/09/01 02:33:30;;;;;;;7.95;4.53;;;14.20;99.90;;;;;;2482772;23;20043;-74
2023/09/01 02:34:32;;;;;;;8.15;4.60;;;14.10;99.90;;;;;;2496368;23;20341;-73
2023/09/01 02:35:34;;;;;;;6.70;4.53;;;14.20;99.90;;;;;;2495979;23;20018;-74
2023/09/01 02:36:35;;;;;;;10.10;4.35;;;14.10;99.90;;;;;;2494936;23;20059;-73
2023/09/01 02:37:36;;;;;;;9.85;5.18;;;14.10;99.90;;;;;;2483157;23;20039;-74
2023/09/01 02:38:37;;;;;;;11.73;4.97;;;14.20;99.90;;;;;;2483709;23;20007;-74
2023/09/01 02:39:37;;;;;;;9.50;4.80;;;14.10;99.90;;;;;;2495436;23;20035;-74
2023/09/01 02:40:39;;;;;;;7.85;4.47;;;14.10;99.90;;;;;;2496263;23;20011;-74
2023/09/01 02:41:40;;;;;;;8.77;4.55;;;14.10;99.90;;;;;;2496022;23;20733;-74
2023/09/01 02:42:41;;;;;;;10.38;5.07;;;14.10;99.90;;;;;;2494437;23;20650;-74
2023/09/01 02:43:41;;;;;;;9.48;5.63;;;14.10;99.90;;;;;;2496167;23;20011;-74
2023/09/01 02:44:42;;;;;;;8.50;4.20;;;14.10;99.90;;;;;;2495480;23;20408;-74
2023/09/01 02:45:42;;;;;;;4.93;3.58;;;14.10;99.90;;;;;;2495401;23;20011;-74
2023/09/01 02:46:45;;;;;;;6.82;4.40;;;14.10;99.90;;;;;;2496195;23;20424;-73
2023/09/01 02:47:46;;;;;;;8.90;4.25;;;14.10;99.90;;;;;;2495344;23;20055;-74
2023/09/01 02:48:47;;;;;;;9.45;4.10;;;14.10;99.90;;;;;;2482657;23;20070;-74
2023/09/01 02:49:47;;;;;;;6.55;4.32;;;14.20;99.90;;;;;;2483833;23;20011;-74
2023/09/01 02:50:48;;;;;;;10.32;5.53;;;14.20;99.90;;;;;;2495647;23;20018;-73
2023/09/01 02:51:49;;;;;;;7.07;4.57;;;14.20;99.90;;;;;;2494524;23;20007;-73
2023/09/01 02:52:49;;;;;;;7.95;4.95;;;14.20;99.90;;;;;;2495492;23;20007;-73
2023/09/01 02:53:50;;;;;;;8.10;5.05;;;14.10;99.90;;;;;;2495509;23;20036;-73
2023/09/01 02:54:50;;;;;;;10.20;5.50;;;14.20;99.90;;;;;;2496183;23;20009;-74
2023/09/01 02:55:51;;;;;;;6.65;5.13;;;14.20;99.90;;;;;;2494844;23;20306;-73
2023/09/01 02:56:51;;;;;;;12.32;5.30;;;14.10;99.90;;;;;;2483474;23;20359;-73
2023/09/01 02:57:52;;;;;;;5.18;4.68;;;14.10;99.90;;;;;;2483008;23;20091;-74
2023/09/01 02:58:52;;;;;;;10.52;5.47;;;14.10;99.90;;;;;;2495353;23;20011;-74
2023/09/01 02:59:53;;;;;;;9.60;5.38;;;14.10;99.90;;;;;;2495453;23;20003;-73
2023/09/01 03:00:54;;;;;;;7.63;4.57;;;14.10;99.90;;;;;;2482899;23;20441;-74
2023/09/01 03:01:55;;;;;;;7.80;4.68;;;14.10;99.90;;;;;;2482999;23;20000;-74
2023/09/01 03:02:56;;;;;;;9.82;5.05;;;14.10;99.90;;;;;;2495063;23;20008;-74
2023/09/01 03:03:57;;;;;;;10.77;5.68;;;14.10;99.90;;;;;;2495756;23;20537;-74
2023/09/01 03:04:59;;;;;;;8.10;4.95;;;14.10;99.90;;;;;;2495472;23;20008;-74
2023/09/01 03:05:59;;;;;;;9.35;5.28;;;14.10;99.90;;;;;;2495952;23;20003;-74
2023/09/01 03:07:00;;;;;;;8.68;4.85;;;14.10;99.90;;;;;;2495395;23;20003;-74
2023/09/01 03:08:00;;;;;;;11.98;5.95;;;14.10;99.90;;;;;;2495631;23;20031;-73
2023/09/01 03:09:02;;;;;;;9.57;5.03;;;14.10;99.90;;;;;;2496018;23;20003;-74
2023/09/01 03:10:07;;;;;;;7.68;5.18;;;14.20;99.90;;;;;;2495725;23;20003;-74
2023/09/01 03:11:08;;;;;;;86.28;76.90;;;14.10;99.90;;;;;;2495146;23;20013;-74
2023/09/01 03:12:09;;;;;;;101.50;95.88;;;14.10;99.90;;;;;;2494953;23;20010;-73
2023/09/01 03:13:09;;;;;;;60.22;56.60;;;14.20;99.90;;;;;;2495455;23;20015;-74
2023/09/01 03:14:10;;;;;;;1999.90;999.90;;;14.20;99.90;;;;;;2496088;23;20006;-73
2023/09/01 03:15:11;;;;;;;1999.90;999.90;;;14.20;99.90;;;;;;2494837;23;20046;-73
2023/09/01 03:16:11;;;;;;;1999.90;999.90;;;14.20;99.90;;;;;;2494845;23;20082;-73
2023/09/01 03:17:12;;;;;;;1999.90;999.90;;;14.20;99.90;;;;;;2494682;23;20015;-74
2023/09/01 03:18:13;;;;;;;1999.90;850.58;;;14.20;99.90;;;;;;2495169;23;20014;-73
2023/09/01 03:19:14;;;;;;;1673.75;765.55;;;14.20;99.90;;;;;;2495817;23;20011;-74
2023/09/01 03:20:15;;;;;;;1064.22;961.67;;;14.20;99.90;;;;;;2495905;23;20010;-73
2023/09/01 03:21:16;;;;;;;1051.63;949.47;;;14.30;99.90;;;;;;2495460;23;20015;-74
2023/09/01 03:22:16;;;;;;;1121.75;998.17;;;14.30;99.90;;;;;;2494980;23;20007;-73
2023/09/01 03:23:17;;;;;;;1155.75;999.90;;;14.30;99.90;;;;;;2494830;23;20078;-74
2023/09/01 03:24:17;;;;;;;1260.88;999.90;;;14.30;99.90;;;;;;2494679;23;20040;-73
2023/09/01 03:25:18;;;;;;;1615.30;999.90;;;14.30;99.90;;;;;;2494585;23;20373;-73
2023/09/01 03:26:22;;;;;;;1891.28;999.90;;;14.30;99.90;;;;;;2495000;23;20003;-73
2023/09/01 03:27:22;;;;;;;1997.43;999.90;;;14.30;99.90;;;;;;2495208;23;20004;-74
2023/09/01 03:28:23;;;;;;;1999.90;999.90;;;14.30;99.90;;;;;;2494931;23;20348;-74
2023/09/01 03:29:23;;;;;;;1999.90;999.90;;;14.40;99.90;;;;;;2494679;23;20018;-74
2023/09/01 03:30:24;;;;;;;1999.90;999.90;;;14.30;99.90;;;;;;2482080;23;20492;-73
2023/09/01 03:31:24;;;;;;;1999.90;999.90;;;14.40;99.90;;;;;;2494919;23;20067;-73
2023/09/01 03:32:25;;;;;;;1999.90;999.90;;;14.40;99.90;;;;;;2494250;23;20030;-73
2023/09/01 03:33:27;;;;;;;1999.90;999.90;;;14.40;99.90;;;;;;2495807;23;20044;-74
2023/09/01 03:34:28;;;;;;;1999.90;999.90;;;14.40;99.90;;;;;;2495720;23;20011;-74
2023/09/01 03:35:30;;;;;;;1999.90;999.90;;;14.40;99.90;;;;;;2495519;23;20042;-74
2023/09/01 03:36:31;;;;;;;1999.90;999.90;;;14.40;99.90;;;;;;2495931;23;20036;-73
2023/09/01 03:37:32;;;;;;;1999.90;999.90;;;14.40;99.90;;;;;;2495615;23;20058;-74
2023/09/01 03:38:32;;;;;;;1999.90;999.90;;;14.40;99.90;;;;;;2494370;23;20401;-74
2023/09/01 03:39:33;;;;;;;1999.90;999.90;;;14.40;99.90;;;;;;2495150;23;20018;-73
2023/09/01 03:40:36;;;;;;;1999.90;999.90;;;14.40;99.90;;;;;;2494993;23;20010;-73
2023/09/01 03:41:37;;;;;;;1999.90;999.90;;;14.40;99.90;;;;;;2495350;23;20436;-73
2023/09/01 03:42:38;;;;;;;1999.90;999.90;;;14.40;99.90;;;;;;2494758;23;20564;-73
2023/09/01 03:43:39;;;;;;;1999.90;999.90;;;14.40;99.90;;;;;;2495519;23;20047;-73
2023/09/01 03:44:39;;;;;;;1999.90;999.90;;;14.40;99.90;;;;;;2495797;23;20059;-74
2023/09/01 03:45:44;;;;;;;1999.90;999.90;;;14.50;99.90;;;;;;2495455;23;20455;-73
2023/09/01 03:46:44;;;;;;;1999.90;999.90;;;14.50;99.90;;;;;;2495230;23;20003;-74
2023/09/01 03:47:45;;;;;;;1999.90;999.90;;;14.50;99.90;;;;;;2495124;23;20010;-74
2023/09/01 03:48:45;;;;;;;1999.90;999.90;;;14.50;99.90;;;;;;2493868;23;20003;-74
2023/09/01 03:49:46;;;;;;;1999.90;999.90;;;14.50;99.90;;;;;;2495342;23;20617;-73
2023/09/01 03:51:05;;;;;;;1999.90;999.90;;;14.50;99.90;;;;;;2495559;23;20003;-74
2023/09/01 03:52:06;;;;;;;1999.90;999.90;;;14.50;99.90;;;;;;2494241;23;20003;-74
2023/09/01 03:53:06;;;;;;;1999.90;999.90;;;14.50;99.90;;;;;;2494157;23;20055;-74
2023/09/01 03:54:07;;;;;;;1999.90;999.90;;;14.50;99.90;;;;;;2483203;23;20000;-74
2023/09/01 03:55:08;;;;;;;1999.90;999.90;;;14.50;99.90;;;;;;2494984;23;20026;-74
2023/09/01 03:56:13;;;;;;;1999.90;999.90;;;14.50;99.90;;;;;;2494657;23;20003;-73
2023/09/01 03:57:15;;;;;;;1999.90;999.90;;;14.50;99.90;;;;;;2494798;23;20012;-73
2023/09/01 03:58:16;;;;;;;1999.90;999.90;;;14.50;99.90;;;;;;2494325;23;20059;-74
2023/09/01 03:59:16;;;;;;;1999.90;999.90;;;14.50;99.90;;;;;;2495281;23;20059;-74
2023/09/01 04:00:17;;;;;;;1999.90;999.90;;;14.60;99.90;;;;;;2482460;23;20008;-74
2023/09/01 04:01:18;;;;;;;1999.90;999.90;;;14.60;99.90;;;;;;2482245;23;20075;-73
2023/09/01 04:02:18;;;;;;;1999.90;999.90;;;14.50;99.90;;;;;;2495079;23;20058;-73
2023/09/01 04:03:19;;;;;;;1999.90;999.90;;;14.60;99.90;;;;;;2495755;23;20019;-73
2023/09/01 04:04:20;;;;;;;1999.90;999.90;;;14.60;99.90;;;;;;2494192;23;20190;-73
2023/09/01 04:05:20;;;;;;;1999.90;999.90;;;14.60;99.90;;;;;;2495176;23;20003;-74
2023/09/01 04:06:21;;;;;;;1999.90;999.90;;;14.60;99.90;;;;;;2494279;23;20039;-73
2023/09/01 04:07:21;;;;;;;1999.90;999.90;;;14.60;99.90;;;;;;2494213;23;20011;-73
2023/09/01 04:08:22;;;;;;;1999.90;999.90;;;14.60;99.90;;;;;;2495920;23;20011;-73
2023/09/01 04:09:23;;;;;;;1999.90;999.90;;;14.60;99.90;;;;;;2494273;23;20011;-74
2023/09/01 04:10:23;;;;;;;1999.90;999.90;;;14.60;99.90;;;;;;2495093;23;20567;-74
2023/09/01 04:11:24;;;;;;;1999.90;999.90;;;14.60;99.90;;;;;;2494569;23;20007;-74
2023/09/01 04:12:25;;;;;;;1999.90;999.90;;;14.60;99.90;;;;;;2481519;23;19999;-74
2023/09/01 04:13:25;;;;;;;1999.90;999.90;;;14.60;99.90;;;;;;2483615;23;20056;-73
2023/09/01 04:14:26;;;;;;;1999.90;999.90;;;14.60;99.90;;;;;;2494966;23;20098;-74
2023/09/01 04:15:26;;;;;;;1999.90;999.90;;;14.60;99.90;;;;;;2495502;23;20015;-73
2023/09/01 04:16:27;;;;;;;1999.90;999.90;;;14.60;99.90;;;;;;2494829;23;20015;-74
2023/09/01 04:17:28;;;;;;;1999.90;999.90;;;14.60;99.90;;;;;;2495099;23;20421;-74
2023/09/01 04:18:29;;;;;;;1999.90;999.90;;;14.60;99.90;;;;;;2494532;23;20007;-73
2023/09/01 04:19:30;;;;;;;1999.90;999.90;;;14.60;99.90;;;;;;2495042;23;20019;-74
2023/09/01 04:20:30;;;;;;;1999.90;999.90;;;14.60;99.90;;;;;;2494558;23;19999;-74
2023/09/01 04:21:31;;;;;;;1999.90;999.90;;;14.60;99.90;;;;;;2494975;23;20381;-74
2023/09/01 04:22:32;;;;;;;1999.90;999.90;;;14.60;99.90;;;;;;2494044;23;20040;-74
2023/09/01 04:23:32;;;;;;;1999.90;999.90;;;14.60;99.90;;;;;;2494166;23;20040;-74
2023/09/01 04:24:33;;;;;;;1999.90;999.90;;;14.60;99.90;;;;;;2495546;23;20060;-74
2023/09/01 04:25:34;;;;;;;1999.90;999.90;;;14.60;99.90;;;;;;2494323;23;20060;-74
2023/09/01 04:26:34;;;;;;;1999.90;999.90;;;14.60;99.90;;;;;;2495735;23;20031;-74
2023/09/01 04:27:35;;;;;;;1999.90;999.90;;;14.70;99.90;;;;;;2495307;23;20318;-73
2023/09/01 04:28:35;;;;;;;1999.90;999.90;;;14.70;99.90;;;;;;2483004;23;20011;-74
2023/09/01 04:29:38;;;;;;;1999.90;999.90;;;14.70;99.90;;;;;;2482477;23;20038;-74
2023/09/01 04:30:39;;;;;;;1999.90;999.90;;;14.70;99.90;;;;;;2482779;23;20019;-74
2023/09/01 04:31:39;;;;;;;1999.90;999.90;;;14.70;99.90;;;;;;2494361;23;20003;-73
2023/09/01 04:32:43;;;;;;;1999.90;999.90;;;14.70;99.90;;;;;;2495033;23;20030;-74
2023/09/01 04:33:45;;;;;;;1999.90;999.90;;;14.60;99.90;;;;;;2495454;23;20003;-74
2023/09/01 04:34:46;;;;;;;1999.90;999.90;;;14.70;99.90;;;;;;2496033;23;20014;-74
2023/09/01 04:35:56;;;;;;;1999.90;999.90;;;14.60;99.90;;;;;;2495149;23;20031;-74
2023/09/01 04:36:56;;;;;;;1999.90;999.90;;;14.70;99.90;;;;;;2494291;23;20031;-74
2023/09/01 04:37:57;;;;;;;1999.90;999.90;;;14.60;99.90;;;;;;2495226;23;20027;-74
2023/09/01 04:38:57;;;;;;;1999.90;999.90;;;14.60;99.90;;;;;;2495357;23;20004;-74
2023/09/01 04:39:58;;;;;;;1999.90;996.42;;;14.60;99.90;;;;;;2495339;23;20078;-73
2023/09/01 04:41:00;;;;;;;1999.90;999.90;;;14.70;99.90;;;;;;2494997;23;20004;-74
2023/09/01 04:42:00;;;;;;;1999.90;913.38;;;14.70;99.90;;;;;;2493715;23;20033;-74
2023/09/01 04:43:01;;;;;;;1999.90;999.90;;;14.70;99.90;;;;;;2494473;23;20026;-73
2023/09/01 04:44:01;;;;;;;1999.90;999.90;;;14.70;99.90;;;;;;2482500;23;20071;-74
2023/09/01 04:45:03;;;;;;;1999.90;999.90;;;14.70;99.90;;;;;;2482528;23;20022;-74
2023/09/01 04:46:04;;;;;;;1999.90;999.90;;;14.70;99.90;;;;;;2495289;23;20336;-74
2023/09/01 04:47:05;;;;;;;1999.90;999.90;;;14.70;99.90;;;;;;2494991;23;20003;-74
2023/09/01 04:48:06;;;;;;;1999.90;999.90;;;14.70;99.90;;;;;;2495146;23;20083;-74
2023/09/01 04:49:06;;;;;;;1999.90;999.90;;;14.70;99.90;;;;;;2494941;23;20348;-74
2023/09/01 04:50:07;;;;;;;1999.90;999.90;;;14.80;99.90;;;;;;2495776;23;20007;-74
2023/09/01 04:51:07;;;;;;;1999.90;999.90;;;14.80;99.90;;;;;;2494654;23;20373;-74
2023/09/01 04:52:08;;;;;;;1999.90;999.90;;;14.80;99.90;;;;;;2494905;23;20051;-74
2023/09/01 04:53:09;;;;;;;1999.90;999.90;;;14.80;99.90;;;;;;2494564;23;20009;-74
2023/09/01 04:54:09;;;;;;;1999.90;999.90;;;14.80;99.90;;;;;;2495009;23;20003;-74
2023/09/01 04:55:10;;;;;;;1999.90;999.90;;;14.80;99.90;;;;;;2495518;23;20361;-74
2023/09/01 04:56:10;;;;;;;1522.82;763.80;;;14.80;99.90;;;;;;2495184;23;20035;-74
2023/09/01 04:57:11;;;;;;;1999.90;999.90;;;14.80;99.90;;;;;;2494256;23;20597;-74
2023/09/01 04:58:12;;;;;;;1999.90;999.90;;;14.80;99.90;;;;;;2493062;23;20011;-74
2023/09/01 04:59:13;;;;;;;1999.90;999.90;;;14.90;99.90;;;;;;2482907;23;19996;-74
2023/09/01 05:00:16;;;;;;;1999.90;999.90;;;14.90;99.90;;;;;;2495413;23;20041;-73
2023/09/01 05:01:17;;;;;;;121.63;38.30;;;14.90;99.90;;;;;;2495137;23;20008;-74
2023/09/01 05:02:17;;;;;;;37.63;5.25;;;14.90;99.90;;;;;;2494426;23;20019;-74
2023/09/01 05:03:18;;;;;;;4.45;3.83;;;14.90;99.90;;;;;;2495414;23;20444;-74
2023/09/01 05:04:18;;;;;;;10.50;4.85;;;14.90;99.90;;;;;;2482881;23;20003;-74
2023/09/01 05:05:19;;;;;;;11.88;5.60;;;15.00;99.90;;;;;;2482791;23;20459;-74
2023/09/01 05:06:19;;;;;;;6.50;4.38;;;15.00;99.90;;;;;;2495140;23;20007;-74
2023/09/01 05:07:20;;;;;;;7.03;4.20;;;15.00;99.90;;;;;;2495322;23;20014;-74
2023/09/01 05:08:20;;;;;;;8.82;4.80;;;15.10;99.90;;;;;;2495727;23;20074;-73
2023/09/01 05:09:21;;;;;;;8.95;4.97;;;15.00;99.90;;;;;;2494965;23;20433;-74
2023/09/01 05:10:22;;;;;;;6.93;4.50;;;15.10;99.90;;;;;;2495698;23;20007;-74
2023/09/01 05:11:23;;;;;;;8.60;4.63;;;15.10;99.90;;;;;;2495662;23;20011;-74
2023/09/01 05:12:23;;;;;;;6.78;4.55;;;15.10;99.90;;;;;;2493505;23;20011;-74
2023/09/01 05:13:26;;;;;;;11.02;4.72;;;15.10;99.90;;;;;;2495597;23;20042;-74
2023/09/01 05:14:26;;;;;;;6.30;4.55;;;15.10;99.90;;;;;;2494976;23;20070;-74
2023/09/01 05:15:27;;;;;;;6.07;4.35;;;15.10;99.90;;;;;;2495179;23;20074;-74